createdAt,value
2016-11-18T00:00:05.803Z,991.05
2016-11-18T00:00:15.797Z,991.02
2016-11-18T00:00:25.793Z,991.02
2016-11-18T00:00:35.785Z,991
2016-11-18T00:00:45.780Z,991.11
2016-11-18T00:00:55.773Z,991.03
2016-11-18T00:01:05.768Z,990.97
2016-11-18T00:01:15.763Z,991.06
2016-11-18T00:01:25.755Z,991.04
2016-11-18T00:01:35.750Z,991.01
2016-11-18T00:01:45.745Z,990.99
2016-11-18T00:01:55.738Z,991.07
2016-11-18T00:02:05.732Z,991
2016-11-18T00:02:15.728Z,990.98
2016-11-18T00:02:25.841Z,990.99
2016-11-18T00:02:35.716Z,990.98
2016-11-18T00:02:45.709Z,990.98
2016-11-18T00:02:55.706Z,991.02
2016-11-18T00:03:05.698Z,991.02
2016-11-18T00:03:15.692Z,991.04
2016-11-18T00:03:25.687Z,991.03
2016-11-18T00:03:35.680Z,991.01
2016-11-18T00:03:45.682Z,991
2016-11-18T00:03:55.670Z,991.03
2016-11-18T00:04:05.663Z,990.99
2016-11-18T00:04:15.657Z,990.93
2016-11-18T00:04:25.653Z,991.02
2016-11-18T00:04:35.648Z,991
2016-11-18T00:04:45.638Z,991.07
2016-11-18T00:04:55.634Z,991.01
2016-11-18T00:05:05.627Z,991.02
2016-11-18T00:05:15.623Z,990.98
2016-11-18T00:05:25.617Z,990.96
2016-11-18T00:05:35.611Z,991.04
2016-11-18T00:05:45.608Z,991.02
2016-11-18T00:05:55.600Z,991
2016-11-18T00:06:05.597Z,991.01
2016-11-18T00:06:15.587Z,990.98
2016-11-18T00:06:25.581Z,990.96
2016-11-18T00:06:35.577Z,990.97
2016-11-18T00:06:45.570Z,990.94
2016-11-18T00:06:55.565Z,990.97
2016-11-18T00:07:05.559Z,991
2016-11-18T00:07:15.553Z,991.05
2016-11-18T00:07:25.548Z,990.98
2016-11-18T00:07:35.541Z,990.98
2016-11-18T00:07:45.535Z,990.96
2016-11-18T00:07:55.530Z,990.95
2016-11-18T00:08:05.524Z,990.92
2016-11-18T00:08:15.518Z,991.03
2016-11-18T00:08:25.536Z,990.95
2016-11-18T00:08:35.517Z,990.94
2016-11-18T00:08:45.501Z,990.95
2016-11-18T00:08:55.493Z,990.94
2016-11-18T00:09:05.489Z,990.95
2016-11-18T00:09:15.483Z,990.92
2016-11-18T00:09:25.477Z,990.97
2016-11-18T00:09:35.471Z,990.97
2016-11-18T00:09:45.466Z,990.96
2016-11-18T00:09:55.460Z,990.95
2016-11-18T00:10:05.453Z,990.95
2016-11-18T00:10:15.448Z,990.93
2016-11-18T00:10:25.444Z,990.97
2016-11-18T00:10:35.437Z,990.93
2016-11-18T00:10:45.431Z,990.96
2016-11-18T00:10:55.427Z,990.98
2016-11-18T00:11:05.420Z,990.93
2016-11-18T00:11:15.415Z,990.9
2016-11-18T00:11:25.408Z,990.96
2016-11-18T00:11:35.406Z,990.9
2016-11-18T00:11:45.397Z,990.87
2016-11-18T00:11:55.393Z,990.89
2016-11-18T00:12:05.385Z,990.85
2016-11-18T00:12:15.378Z,990.86
2016-11-18T00:12:25.373Z,990.84
2016-11-18T00:12:35.367Z,990.88
2016-11-18T00:12:45.362Z,990.85
2016-11-18T00:12:55.691Z,990.88
2016-11-18T00:13:05.350Z,990.84
2016-11-18T00:13:15.346Z,990.8
2016-11-18T00:13:25.361Z,990.84
2016-11-18T00:13:35.334Z,990.89
2016-11-18T00:13:45.326Z,990.84
2016-11-18T00:13:55.321Z,990.9
2016-11-18T00:14:05.315Z,990.78
2016-11-18T00:14:15.309Z,990.8
2016-11-18T00:14:25.304Z,990.78
2016-11-18T00:14:35.298Z,990.78
2016-11-18T00:14:45.293Z,990.77
2016-11-18T00:14:55.285Z,990.74
2016-11-18T00:15:05.281Z,990.81
2016-11-18T00:15:15.392Z,990.81
2016-11-18T00:15:25.270Z,990.8
2016-11-18T00:15:35.261Z,990.79
2016-11-18T00:15:45.257Z,990.77
2016-11-18T00:15:55.252Z,990.77
2016-11-18T00:16:05.246Z,990.81
2016-11-18T00:16:15.239Z,990.88
2016-11-18T00:16:25.233Z,990.84
2016-11-18T00:16:35.228Z,990.78
2016-11-18T00:16:45.227Z,990.77
2016-11-18T00:16:55.216Z,990.8
2016-11-18T00:17:05.211Z,990.75
2016-11-18T00:17:15.207Z,990.72
2016-11-18T00:17:25.200Z,990.71
2016-11-18T00:17:35.194Z,990.71
2016-11-18T00:17:45.189Z,990.74
2016-11-18T00:17:55.182Z,990.77
2016-11-18T00:18:05.177Z,990.75
2016-11-18T00:18:15.169Z,990.65
2016-11-18T00:18:25.167Z,990.65
2016-11-18T00:18:35.159Z,990.68
2016-11-18T00:18:45.153Z,990.68
2016-11-18T00:18:55.147Z,990.65
2016-11-18T00:19:05.476Z,990.69
2016-11-18T00:19:15.136Z,990.68
2016-11-18T00:19:25.130Z,990.69
2016-11-18T00:19:35.123Z,990.71
2016-11-18T00:19:45.119Z,990.66
2016-11-18T00:19:55.114Z,990.72
2016-11-18T00:20:05.107Z,990.72
2016-11-18T00:20:15.104Z,990.74
2016-11-18T00:20:25.095Z,990.66
2016-11-18T00:20:35.089Z,990.68
2016-11-18T00:20:45.085Z,990.78
2016-11-18T00:20:55.077Z,990.72
2016-11-18T00:21:05.072Z,990.72
2016-11-18T00:21:15.068Z,990.79
2016-11-18T00:21:25.060Z,990.76
2016-11-18T00:21:35.057Z,990.78
2016-11-18T00:21:45.049Z,990.69
2016-11-18T00:21:55.043Z,990.72
2016-11-18T00:22:05.037Z,990.75
2016-11-18T00:22:15.031Z,990.72
2016-11-18T00:22:25.026Z,990.72
2016-11-18T00:22:35.020Z,990.75
2016-11-18T00:22:45.013Z,990.69
2016-11-18T00:22:55.009Z,990.69
2016-11-18T00:23:05.003Z,990.72
2016-11-18T00:23:14.996Z,990.71
2016-11-18T00:23:24.990Z,990.69
2016-11-18T00:23:34.984Z,990.65
2016-11-18T00:23:44.980Z,990.66
2016-11-18T00:23:54.975Z,990.64
2016-11-18T00:24:04.990Z,990.64
2016-11-18T00:24:14.964Z,990.73
2016-11-18T00:24:24.957Z,990.71
2016-11-18T00:24:34.952Z,990.63
2016-11-18T00:24:44.946Z,990.69
2016-11-18T00:24:54.939Z,990.66
2016-11-18T00:25:04.934Z,990.67
2016-11-18T00:25:14.927Z,990.65
2016-11-18T00:25:24.923Z,990.6
2016-11-18T00:25:34.915Z,990.63
2016-11-18T00:25:44.929Z,990.62
2016-11-18T00:25:54.903Z,990.65
2016-11-18T00:26:04.900Z,990.6
2016-11-18T00:26:14.892Z,990.65
2016-11-18T00:26:24.887Z,990.6
2016-11-18T00:26:34.881Z,990.57
2016-11-18T00:26:44.875Z,990.62
2016-11-18T00:26:54.870Z,990.56
2016-11-18T00:27:04.865Z,990.66
2016-11-18T00:27:14.858Z,990.66
2016-11-18T00:27:24.852Z,990.7
2016-11-18T00:27:34.847Z,990.66
2016-11-18T00:27:44.843Z,990.63
2016-11-18T00:27:54.835Z,990.68
2016-11-18T00:28:04.827Z,990.68
2016-11-18T00:28:14.822Z,990.65
2016-11-18T00:28:24.818Z,990.58
2016-11-18T00:28:34.812Z,990.5
2016-11-18T00:28:44.807Z,990.54
2016-11-18T00:28:54.801Z,990.5
2016-11-18T00:29:04.795Z,990.61
2016-11-18T00:29:14.789Z,990.55
2016-11-18T00:29:24.784Z,990.59
2016-11-18T00:29:34.778Z,990.6
2016-11-18T00:29:44.772Z,990.57
2016-11-18T00:29:54.765Z,990.57
2016-11-18T00:30:04.760Z,990.53
2016-11-18T00:30:14.755Z,990.6
2016-11-18T00:30:24.749Z,990.56
2016-11-18T00:30:34.743Z,990.52
2016-11-18T00:30:44.736Z,990.53
2016-11-18T00:30:54.732Z,990.6
2016-11-18T00:31:04.726Z,990.54
2016-11-18T00:31:14.719Z,990.59
2016-11-18T00:31:24.714Z,990.6
2016-11-18T00:31:34.707Z,990.59
2016-11-18T00:31:44.702Z,990.54
2016-11-18T00:31:54.697Z,990.52
2016-11-18T00:32:04.690Z,990.56
2016-11-18T00:32:14.684Z,990.5
2016-11-18T00:32:24.678Z,990.48
2016-11-18T00:32:35.349Z,990.51
2016-11-18T00:32:44.668Z,990.51
2016-11-18T00:32:54.662Z,990.52
2016-11-18T00:33:04.655Z,990.52
2016-11-18T00:33:14.649Z,990.48
2016-11-18T00:33:24.644Z,990.51
2016-11-18T00:33:34.638Z,990.49
2016-11-18T00:33:44.632Z,990.52
2016-11-18T00:33:54.628Z,990.5
2016-11-18T00:34:04.621Z,990.47
2016-11-18T00:34:14.616Z,990.5
2016-11-18T00:34:24.609Z,990.47
2016-11-18T00:34:34.604Z,990.54
2016-11-18T00:34:44.597Z,990.48
2016-11-18T00:34:54.592Z,990.5
2016-11-18T00:35:04.588Z,990.48
2016-11-18T00:35:14.582Z,990.52
2016-11-18T00:35:24.576Z,990.32
2016-11-18T00:35:34.570Z,990.53
2016-11-18T00:35:44.564Z,990.43
2016-11-18T00:35:54.557Z,990.52
2016-11-18T00:36:04.550Z,990.44
2016-11-18T00:36:14.545Z,990.54
2016-11-18T00:36:24.540Z,990.49
2016-11-18T00:36:34.536Z,990.4
2016-11-18T00:36:44.529Z,990.54
2016-11-18T00:36:54.523Z,990.42
2016-11-18T00:37:04.518Z,990.41
2016-11-18T00:37:14.714Z,990.45
2016-11-18T00:37:24.505Z,990.44
2016-11-18T00:37:34.499Z,990.41
2016-11-18T00:37:44.493Z,990.37
2016-11-18T00:37:54.487Z,990.4
2016-11-18T00:38:04.483Z,990.33
2016-11-18T00:38:14.477Z,990.32
2016-11-18T00:38:24.469Z,990.37
2016-11-18T00:38:34.469Z,990.41
2016-11-18T00:38:44.460Z,990.37
2016-11-18T00:38:54.453Z,990.36
2016-11-18T00:39:04.448Z,990.36
2016-11-18T00:39:14.441Z,990.39
2016-11-18T00:39:24.438Z,990.38
2016-11-18T00:39:34.432Z,990.45
2016-11-18T00:39:44.425Z,990.4
2016-11-18T00:39:54.419Z,990.4
2016-11-18T00:40:04.414Z,990.4
2016-11-18T00:40:14.407Z,990.39
2016-11-18T00:40:24.400Z,990.4
2016-11-18T00:40:34.396Z,990.39
2016-11-18T00:40:44.389Z,990.38
2016-11-18T00:40:54.410Z,990.46
2016-11-18T00:41:04.378Z,990.42
2016-11-18T00:41:14.374Z,990.38
2016-11-18T00:41:24.366Z,990.38
2016-11-18T00:41:34.359Z,990.42
2016-11-18T00:41:44.356Z,990.49
2016-11-18T00:41:54.350Z,990.47
2016-11-18T00:42:04.343Z,990.46
2016-11-18T00:42:14.337Z,990.47
2016-11-18T00:42:24.332Z,990.56
2016-11-18T00:42:34.328Z,990.49
2016-11-18T00:42:44.439Z,990.56
2016-11-18T00:42:54.314Z,990.57
2016-11-18T00:43:04.309Z,990.6
2016-11-18T00:43:14.303Z,990.58
2016-11-18T00:43:24.297Z,990.61
2016-11-18T00:43:34.288Z,990.64
2016-11-18T00:43:44.286Z,990.62
2016-11-18T00:43:54.280Z,990.66
2016-11-18T00:44:04.274Z,990.65
2016-11-18T00:44:14.269Z,990.66
2016-11-18T00:44:24.264Z,990.65
2016-11-18T00:44:34.259Z,990.62
2016-11-18T00:44:44.249Z,990.73
2016-11-18T00:44:54.243Z,990.64
2016-11-18T00:45:04.237Z,990.66
2016-11-18T00:45:14.232Z,990.67
2016-11-18T00:45:24.227Z,990.65
2016-11-18T00:45:34.223Z,990.71
2016-11-18T00:45:44.218Z,990.72
2016-11-18T00:45:54.210Z,990.74
2016-11-18T00:46:04.203Z,990.81
2016-11-18T00:46:14.201Z,990.84
2016-11-18T00:46:24.194Z,990.82
2016-11-18T00:46:34.214Z,990.85
2016-11-18T00:46:44.182Z,990.88
2016-11-18T00:46:54.174Z,990.85
2016-11-18T00:47:04.170Z,990.85
2016-11-18T00:47:14.164Z,990.87
2016-11-18T00:47:24.158Z,990.87
2016-11-18T00:47:34.153Z,990.88
2016-11-18T00:47:44.170Z,990.86
2016-11-18T00:47:54.140Z,990.84
2016-11-18T00:48:04.132Z,990.84
2016-11-18T00:48:14.463Z,990.83
2016-11-18T00:48:24.124Z,990.72
2016-11-18T00:48:34.118Z,990.75
2016-11-18T00:48:44.113Z,990.81
2016-11-18T00:48:54.105Z,990.84
2016-11-18T00:49:04.100Z,990.8
2016-11-18T00:49:14.095Z,990.8
2016-11-18T00:49:24.088Z,990.79
2016-11-18T00:49:34.083Z,990.79
2016-11-18T00:49:44.077Z,990.77
2016-11-18T00:49:54.071Z,990.69
2016-11-18T00:50:04.066Z,990.68
2016-11-18T00:50:14.060Z,990.71
2016-11-18T00:50:24.058Z,990.67
2016-11-18T00:50:34.048Z,990.65
2016-11-18T00:50:44.043Z,990.72
2016-11-18T00:50:54.036Z,990.75
2016-11-18T00:51:04.031Z,990.75
2016-11-18T00:51:14.027Z,990.79
2016-11-18T00:51:24.020Z,990.81
2016-11-18T00:51:34.013Z,990.81
2016-11-18T00:51:44.008Z,990.81
2016-11-18T00:51:54.002Z,990.86
2016-11-18T00:52:03.996Z,990.89
2016-11-18T00:52:13.992Z,990.97
2016-11-18T00:52:23.985Z,990.99
2016-11-18T00:52:33.978Z,991.02
2016-11-18T00:52:43.974Z,991.13
2016-11-18T00:52:53.966Z,991.2
2016-11-18T00:53:03.968Z,991.21
2016-11-18T00:53:13.955Z,991.28
2016-11-18T00:53:23.964Z,991.28
2016-11-18T00:53:33.945Z,991.41
2016-11-18T00:53:43.939Z,991.43
2016-11-18T00:53:53.933Z,991.41
2016-11-18T00:54:03.926Z,991.48
2016-11-18T00:54:13.924Z,991.51
2016-11-18T00:54:23.915Z,991.43
2016-11-18T00:54:33.909Z,991.45
2016-11-18T00:54:43.903Z,991.48
2016-11-18T00:54:53.897Z,991.4
2016-11-18T00:55:04.226Z,991.44
2016-11-18T00:55:13.889Z,991.33
2016-11-18T00:55:23.881Z,991.22
2016-11-18T00:55:33.874Z,991.18
2016-11-18T00:55:43.868Z,991.11
2016-11-18T00:55:53.865Z,991.06
2016-11-18T00:56:03.856Z,991.06
2016-11-18T00:56:13.852Z,990.93
2016-11-18T00:56:23.847Z,990.91
2016-11-18T00:56:33.840Z,990.86
2016-11-18T00:56:43.834Z,990.86
2016-11-18T00:56:53.829Z,990.78
2016-11-18T00:57:03.823Z,990.78
2016-11-18T00:57:13.818Z,990.81
2016-11-18T00:57:23.815Z,990.74
2016-11-18T00:57:33.806Z,990.74
2016-11-18T00:57:43.798Z,990.8
2016-11-18T00:57:53.794Z,990.8
2016-11-18T00:58:03.787Z,990.86
2016-11-18T00:58:13.781Z,990.76
2016-11-18T00:58:23.776Z,990.86
2016-11-18T00:58:33.773Z,990.83
2016-11-18T00:58:43.764Z,990.87
2016-11-18T00:58:53.758Z,990.9
2016-11-18T00:59:03.752Z,990.91
2016-11-18T00:59:13.747Z,990.91
2016-11-18T00:59:23.741Z,990.9
2016-11-18T00:59:33.735Z,990.91
2016-11-18T00:59:43.729Z,990.89
2016-11-18T00:59:53.724Z,990.9
2016-11-18T01:00:03.718Z,990.84
2016-11-18T01:00:13.712Z,990.88
2016-11-18T01:00:23.708Z,990.82
2016-11-18T01:00:33.700Z,990.9
2016-11-18T01:00:43.696Z,990.91
2016-11-18T01:00:53.689Z,990.99
2016-11-18T01:01:03.683Z,990.97
2016-11-18T01:01:13.678Z,990.98
2016-11-18T01:01:23.671Z,990.98
2016-11-18T01:01:33.667Z,991.08
2016-11-18T01:01:43.660Z,991.07
2016-11-18T01:01:53.654Z,991.03
2016-11-18T01:02:03.647Z,991.05
2016-11-18T01:02:13.643Z,991.03
2016-11-18T01:02:23.637Z,991.1
2016-11-18T01:02:33.631Z,991.03
2016-11-18T01:02:43.627Z,991.05
2016-11-18T01:02:53.619Z,991.13
2016-11-18T01:03:03.612Z,991.11
2016-11-18T01:03:13.608Z,991.1
2016-11-18T01:03:23.604Z,991.1
2016-11-18T01:03:33.596Z,991.1
2016-11-18T01:03:43.590Z,991.07
2016-11-18T01:03:53.921Z,991.08
2016-11-18T01:04:03.579Z,991.02
2016-11-18T01:04:13.572Z,990.97
2016-11-18T01:04:23.567Z,990.95
2016-11-18T01:04:33.562Z,990.9
2016-11-18T01:04:43.556Z,990.89
2016-11-18T01:04:53.549Z,990.84
2016-11-18T01:05:03.543Z,990.83
2016-11-18T01:05:13.538Z,990.84
2016-11-18T01:05:23.532Z,990.77
2016-11-18T01:05:33.527Z,990.78
2016-11-18T01:05:43.522Z,990.8
2016-11-18T01:05:53.515Z,990.81
2016-11-18T01:06:03.514Z,990.79
2016-11-18T01:06:13.505Z,990.84
2016-11-18T01:06:23.498Z,990.78
2016-11-18T01:06:33.492Z,990.78
2016-11-18T01:06:43.486Z,990.76
2016-11-18T01:06:53.818Z,990.78
2016-11-18T01:07:03.474Z,990.8
2016-11-18T01:07:13.467Z,990.8
2016-11-18T01:07:23.463Z,990.79
2016-11-18T01:07:33.457Z,990.81
2016-11-18T01:07:43.452Z,990.78
2016-11-18T01:07:53.446Z,990.83
2016-11-18T01:08:03.438Z,990.86
2016-11-18T01:08:13.437Z,990.84
2016-11-18T01:08:23.428Z,990.91
2016-11-18T01:08:33.421Z,990.89
2016-11-18T01:08:43.417Z,990.88
2016-11-18T01:08:53.411Z,990.89
2016-11-18T01:09:03.404Z,990.86
2016-11-18T01:09:13.399Z,990.88
2016-11-18T01:09:23.393Z,990.89
2016-11-18T01:09:33.386Z,990.9
2016-11-18T01:09:43.382Z,990.93
2016-11-18T01:09:53.374Z,991
2016-11-18T01:10:03.370Z,991.01
2016-11-18T01:10:13.363Z,991.05
2016-11-18T01:10:23.356Z,991.07
2016-11-18T01:10:33.352Z,991.1
2016-11-18T01:10:43.346Z,991.18
2016-11-18T01:10:53.343Z,991.18
2016-11-18T01:11:03.336Z,991.22
2016-11-18T01:11:13.328Z,991.22
2016-11-18T01:11:23.323Z,991.2
2016-11-18T01:11:33.317Z,991.2
2016-11-18T01:11:43.311Z,991.18
2016-11-18T01:11:53.304Z,991.16
2016-11-18T01:12:03.299Z,991.15
2016-11-18T01:12:13.295Z,991.11
2016-11-18T01:12:23.288Z,991.08
2016-11-18T01:12:33.281Z,991.03
2016-11-18T01:12:43.277Z,991.04
2016-11-18T01:12:53.271Z,990.97
2016-11-18T01:13:03.265Z,990.98
2016-11-18T01:13:13.257Z,990.95
2016-11-18T01:13:23.253Z,990.92
2016-11-18T01:13:33.248Z,990.92
2016-11-18T01:13:43.241Z,990.89
2016-11-18T01:13:53.236Z,990.89
2016-11-18T01:14:03.229Z,990.82
2016-11-18T01:14:13.223Z,990.77
2016-11-18T01:14:23.218Z,990.77
2016-11-18T01:14:33.213Z,990.75
2016-11-18T01:14:43.206Z,990.73
2016-11-18T01:14:53.199Z,990.73
2016-11-18T01:15:03.195Z,990.74
2016-11-18T01:15:13.190Z,990.74
2016-11-18T01:15:23.185Z,990.72
2016-11-18T01:15:33.294Z,990.79
2016-11-18T01:15:43.174Z,990.81
2016-11-18T01:15:53.167Z,990.81
2016-11-18T01:16:03.160Z,990.84
2016-11-18T01:16:13.151Z,990.79
2016-11-18T01:16:23.482Z,990.81
2016-11-18T01:16:33.144Z,990.77
2016-11-18T01:16:43.135Z,990.83
2016-11-18T01:16:53.256Z,990.84
2016-11-18T01:17:03.126Z,990.83
2016-11-18T01:17:13.118Z,990.84
2016-11-18T01:17:23.114Z,990.82
2016-11-18T01:17:33.107Z,990.84
2016-11-18T01:17:43.102Z,990.86
2016-11-18T01:17:53.095Z,990.89
2016-11-18T01:18:03.089Z,990.84
2016-11-18T01:18:13.083Z,990.85
2016-11-18T01:18:23.078Z,990.82
2016-11-18T01:18:33.071Z,990.79
2016-11-18T01:18:43.066Z,990.76
2016-11-18T01:18:53.060Z,990.72
2016-11-18T01:19:03.054Z,990.73
2016-11-18T01:19:13.049Z,990.71
2016-11-18T01:19:23.043Z,990.69
2016-11-18T01:19:33.036Z,990.66
2016-11-18T01:19:43.030Z,990.65
2016-11-18T01:19:53.027Z,990.71
2016-11-18T01:20:03.019Z,990.71
2016-11-18T01:20:13.014Z,990.75
2016-11-18T01:20:23.008Z,990.75
2016-11-18T01:20:33.001Z,990.73
2016-11-18T01:20:42.996Z,990.75
2016-11-18T01:20:52.990Z,990.71
2016-11-18T01:21:02.983Z,990.73
2016-11-18T01:21:12.978Z,990.73
2016-11-18T01:21:22.971Z,990.76
2016-11-18T01:21:32.967Z,990.79
2016-11-18T01:21:42.959Z,990.78
2016-11-18T01:21:52.953Z,990.79
2016-11-18T01:22:02.949Z,990.9
2016-11-18T01:22:12.942Z,990.86
2016-11-18T01:22:22.937Z,990.86
2016-11-18T01:22:32.931Z,990.91
2016-11-18T01:22:42.926Z,990.9
2016-11-18T01:22:52.919Z,990.88
2016-11-18T01:23:02.914Z,990.91
2016-11-18T01:23:12.908Z,990.93
2016-11-18T01:23:22.901Z,990.91
2016-11-18T01:23:32.895Z,990.85
2016-11-18T01:23:42.891Z,990.86
2016-11-18T01:23:52.886Z,990.85
2016-11-18T01:24:02.878Z,990.78
2016-11-18T01:24:12.873Z,990.82
2016-11-18T01:24:22.866Z,990.75
2016-11-18T01:24:32.860Z,990.75
2016-11-18T01:24:42.857Z,990.72
2016-11-18T01:24:52.849Z,990.74
2016-11-18T01:25:02.843Z,990.77
2016-11-18T01:25:12.837Z,990.76
2016-11-18T01:25:22.831Z,990.74
2016-11-18T01:25:32.827Z,990.83
2016-11-18T01:25:42.821Z,990.82
2016-11-18T01:25:52.814Z,990.89
2016-11-18T01:26:02.809Z,990.86
2016-11-18T01:26:13.154Z,990.83
2016-11-18T01:26:22.799Z,990.84
2016-11-18T01:26:32.790Z,990.9
2016-11-18T01:26:43.129Z,990.85
2016-11-18T01:26:52.780Z,990.86
2016-11-18T01:27:02.807Z,990.86
2016-11-18T01:27:12.768Z,990.83
2016-11-18T01:27:22.763Z,990.85
2016-11-18T01:27:32.755Z,990.86
2016-11-18T01:27:42.755Z,990.91
2016-11-18T01:27:52.743Z,990.91
2016-11-18T01:28:02.738Z,990.96
2016-11-18T01:28:12.732Z,990.94
2016-11-18T01:28:22.727Z,990.97
2016-11-18T01:28:32.722Z,990.93
2016-11-18T01:28:42.716Z,990.97
2016-11-18T01:28:52.709Z,990.91
2016-11-18T01:29:02.703Z,990.92
2016-11-18T01:29:12.698Z,990.91
2016-11-18T01:29:22.691Z,990.91
2016-11-18T01:29:32.683Z,990.87
2016-11-18T01:29:42.680Z,990.84
2016-11-18T01:29:52.676Z,990.83
2016-11-18T01:30:02.668Z,990.83
2016-11-18T01:30:12.661Z,990.84
2016-11-18T01:30:22.658Z,990.79
2016-11-18T01:30:32.651Z,990.78
2016-11-18T01:30:42.644Z,990.73
2016-11-18T01:30:52.638Z,990.75
2016-11-18T01:31:02.634Z,990.76
2016-11-18T01:31:12.628Z,990.72
2016-11-18T01:31:22.620Z,990.77
2016-11-18T01:31:32.615Z,990.69
2016-11-18T01:31:42.610Z,990.66
2016-11-18T01:31:52.605Z,990.69
2016-11-18T01:32:02.597Z,990.66
2016-11-18T01:32:12.591Z,990.66
2016-11-18T01:32:22.587Z,990.63
2016-11-18T01:32:32.579Z,990.72
2016-11-18T01:32:42.574Z,990.7
2016-11-18T01:32:52.569Z,990.64
2016-11-18T01:33:02.563Z,990.66
2016-11-18T01:33:12.557Z,990.61
2016-11-18T01:33:22.552Z,990.63
2016-11-18T01:33:32.567Z,990.66
2016-11-18T01:33:42.540Z,990.67
2016-11-18T01:33:52.533Z,990.67
2016-11-18T01:34:02.529Z,990.67
2016-11-18T01:34:12.521Z,990.68
2016-11-18T01:34:22.516Z,990.7
2016-11-18T01:34:32.510Z,990.7
2016-11-18T01:34:42.505Z,990.71
2016-11-18T01:34:52.498Z,990.68
2016-11-18T01:35:02.833Z,990.67
2016-11-18T01:35:12.488Z,990.65
2016-11-18T01:35:22.482Z,990.63
2016-11-18T01:35:32.473Z,990.65
2016-11-18T01:35:42.468Z,990.65
2016-11-18T01:35:52.463Z,990.63
2016-11-18T01:36:02.458Z,990.59
2016-11-18T01:36:12.453Z,990.63
2016-11-18T01:36:22.447Z,990.62
2016-11-18T01:36:32.440Z,990.65
2016-11-18T01:36:42.434Z,990.65
2016-11-18T01:36:52.428Z,990.59
2016-11-18T01:37:02.421Z,990.57
2016-11-18T01:37:12.418Z,990.59
2016-11-18T01:37:22.411Z,990.57
2016-11-18T01:37:32.405Z,990.53
2016-11-18T01:37:42.398Z,990.56
2016-11-18T01:37:52.394Z,990.55
2016-11-18T01:38:02.388Z,990.54
2016-11-18T01:38:12.384Z,990.56
2016-11-18T01:38:22.377Z,990.55
2016-11-18T01:38:32.369Z,990.56
2016-11-18T01:38:42.364Z,990.62
2016-11-18T01:38:52.358Z,990.63
2016-11-18T01:39:02.353Z,990.63
2016-11-18T01:39:12.346Z,990.67
2016-11-18T01:39:22.339Z,990.73
2016-11-18T01:39:32.335Z,990.73
2016-11-18T01:39:42.328Z,990.78
2016-11-18T01:39:52.322Z,990.79
2016-11-18T01:40:02.317Z,990.77
2016-11-18T01:40:12.310Z,990.8
2016-11-18T01:40:22.305Z,990.82
2016-11-18T01:40:32.299Z,990.84
2016-11-18T01:40:42.293Z,990.8
2016-11-18T01:40:52.288Z,990.79
2016-11-18T01:41:02.282Z,990.75
2016-11-18T01:41:12.276Z,990.71
2016-11-18T01:41:22.269Z,990.69
2016-11-18T01:41:32.263Z,990.61
2016-11-18T01:41:42.260Z,990.66
2016-11-18T01:41:52.252Z,990.64
2016-11-18T01:42:02.249Z,990.53
2016-11-18T01:42:12.241Z,990.53
2016-11-18T01:42:22.235Z,990.5
2016-11-18T01:42:32.231Z,990.51
2016-11-18T01:42:42.223Z,990.46
2016-11-18T01:42:52.217Z,990.41
2016-11-18T01:43:02.211Z,990.42
2016-11-18T01:43:12.205Z,990.42
2016-11-18T01:43:22.199Z,990.4
2016-11-18T01:43:32.193Z,990.38
2016-11-18T01:43:42.187Z,990.39
2016-11-18T01:43:52.183Z,990.4
2016-11-18T01:44:02.177Z,990.4
2016-11-18T01:44:12.170Z,990.48
2016-11-18T01:44:22.166Z,990.47
2016-11-18T01:44:32.158Z,990.47
2016-11-18T01:44:42.153Z,990.49
2016-11-18T01:44:52.147Z,990.52
2016-11-18T01:45:02.141Z,990.53
2016-11-18T01:45:12.136Z,990.62
2016-11-18T01:45:22.129Z,990.61
2016-11-18T01:45:32.125Z,990.57
2016-11-18T01:45:42.118Z,990.65
2016-11-18T01:45:52.113Z,990.71
2016-11-18T01:46:02.106Z,990.7
2016-11-18T01:46:12.099Z,990.69
2016-11-18T01:46:22.094Z,990.72
2016-11-18T01:46:32.095Z,990.75
2016-11-18T01:46:42.082Z,990.77
2016-11-18T01:46:52.079Z,990.76
2016-11-18T01:47:02.100Z,990.79
2016-11-18T01:47:12.066Z,990.79
2016-11-18T01:47:22.059Z,990.8
2016-11-18T01:47:32.053Z,990.8
2016-11-18T01:47:42.048Z,990.72
2016-11-18T01:47:52.041Z,990.74
2016-11-18T01:48:02.035Z,990.67
2016-11-18T01:48:12.030Z,990.65
2016-11-18T01:48:22.025Z,990.6
2016-11-18T01:48:32.019Z,990.59
2016-11-18T01:48:42.012Z,990.6
2016-11-18T01:48:52.006Z,990.58
2016-11-18T01:49:02.001Z,990.56
2016-11-18T01:49:11.994Z,990.55
2016-11-18T01:49:21.987Z,990.54
2016-11-18T01:49:31.983Z,990.58
2016-11-18T01:49:41.979Z,990.57
2016-11-18T01:49:51.974Z,990.56
2016-11-18T01:50:01.964Z,990.56
2016-11-18T01:50:11.960Z,990.59
2016-11-18T01:50:21.951Z,990.61
2016-11-18T01:50:31.946Z,990.63
2016-11-18T01:50:41.941Z,990.69
2016-11-18T01:50:51.938Z,990.68
2016-11-18T01:51:01.931Z,990.74
2016-11-18T01:51:11.924Z,990.74
2016-11-18T01:51:21.918Z,990.77
2016-11-18T01:51:31.912Z,990.8
2016-11-18T01:51:41.906Z,990.83
2016-11-18T01:51:51.901Z,990.89
2016-11-18T01:52:01.894Z,990.85
2016-11-18T01:52:11.886Z,990.83
2016-11-18T01:52:21.882Z,990.89
2016-11-18T01:52:31.878Z,990.85
2016-11-18T01:52:41.869Z,990.82
2016-11-18T01:52:51.866Z,990.78
2016-11-18T01:53:01.858Z,990.73
2016-11-18T01:53:11.853Z,990.71
2016-11-18T01:53:21.873Z,990.66
2016-11-18T01:53:31.839Z,990.62
2016-11-18T01:53:41.836Z,990.62
2016-11-18T01:53:51.828Z,990.56
2016-11-18T01:54:01.822Z,990.55
2016-11-18T01:54:11.817Z,990.55
2016-11-18T01:54:21.812Z,990.53
2016-11-18T01:54:31.803Z,990.57
2016-11-18T01:54:41.799Z,990.57
2016-11-18T01:54:52.127Z,990.59
2016-11-18T01:55:01.788Z,990.63
2016-11-18T01:55:11.781Z,990.61
2016-11-18T01:55:21.776Z,990.56
2016-11-18T01:55:31.769Z,990.6
2016-11-18T01:55:41.763Z,990.52
2016-11-18T01:55:51.759Z,990.54
2016-11-18T01:56:01.780Z,990.55
2016-11-18T01:56:11.747Z,990.57
2016-11-18T01:56:21.742Z,990.56
2016-11-18T01:56:31.734Z,990.6
2016-11-18T01:56:41.883Z,990.62
2016-11-18T01:56:51.722Z,990.6
2016-11-18T01:57:01.719Z,990.61
2016-11-18T01:57:11.712Z,990.61
2016-11-18T01:57:21.705Z,990.64
2016-11-18T01:57:31.699Z,990.66
2016-11-18T01:57:41.694Z,990.59
2016-11-18T01:57:51.687Z,990.65
2016-11-18T01:58:01.712Z,990.64
2016-11-18T01:58:11.677Z,990.6
2016-11-18T01:58:21.670Z,990.64
2016-11-18T01:58:31.666Z,990.59
2016-11-18T01:58:41.658Z,990.57
2016-11-18T01:58:51.654Z,990.59
2016-11-18T01:59:01.646Z,990.58
2016-11-18T01:59:11.643Z,990.55
2016-11-18T01:59:21.635Z,990.54
2016-11-18T01:59:31.629Z,990.63
2016-11-18T01:59:41.623Z,990.62
2016-11-18T01:59:51.645Z,990.56
2016-11-18T02:00:01.611Z,990.58
2016-11-18T02:00:11.608Z,990.62
2016-11-18T02:00:21.600Z,990.6
2016-11-18T02:00:31.595Z,990.58
2016-11-18T02:00:41.589Z,990.55
2016-11-18T02:00:51.581Z,990.62
2016-11-18T02:01:01.577Z,990.59
2016-11-18T02:01:11.571Z,990.53
2016-11-18T02:01:21.565Z,990.63
2016-11-18T02:01:31.559Z,990.62
2016-11-18T02:01:41.553Z,990.62
2016-11-18T02:01:51.547Z,990.63
2016-11-18T02:02:01.542Z,990.62
2016-11-18T02:02:11.533Z,990.61
2016-11-18T02:02:21.530Z,990.59
2016-11-18T02:02:31.549Z,990.59
2016-11-18T02:02:41.518Z,990.61
2016-11-18T02:02:51.511Z,990.56
2016-11-18T02:03:01.509Z,990.65
2016-11-18T02:03:11.498Z,990.51
2016-11-18T02:03:21.493Z,990.58
2016-11-18T02:03:31.488Z,990.52
2016-11-18T02:03:41.482Z,990.53
2016-11-18T02:03:51.475Z,990.54
2016-11-18T02:04:01.470Z,990.58
2016-11-18T02:04:11.465Z,990.57
2016-11-18T02:04:21.714Z,990.58
2016-11-18T02:04:31.454Z,990.54
2016-11-18T02:04:41.448Z,990.56
2016-11-18T02:04:51.439Z,990.56
2016-11-18T02:05:01.435Z,990.59
2016-11-18T02:05:11.429Z,990.57